sensor_id;sensor_type;location;lat;lon;timestamp;temperature;humidity
15156;DHT22;7678;50.058;8.306;2022-08-11T00:01:08;22.60;35.30
15156;DHT22;7678;50.058;8.306;2022-08-11T00:03:45;22.60;35.60
15156;DHT22;7678;50.058;8.306;2022-08-11T00:06:15;22.60;35.10
15156;DHT22;7678;50.058;8.306;2022-08-11T00:08:50;22.80;34.70
15156;DHT22;7678;50.058;8.306;2022-08-11T00:11:20;22.70;35.00
15156;DHT22;7678;50.058;8.306;2022-08-11T00:13:53;22.60;35.50
15156;DHT22;7678;50.058;8.306;2022-08-11T00:16:23;22.50;35.20
15156;DHT22;7678;50.058;8.306;2022-08-11T00:18:54;22.40;35.50
15156;DHT22;7678;50.058;8.306;2022-08-11T00:21:24;22.30;35.60
15156;DHT22;7678;50.058;8.306;2022-08-11T00:24:13;22.30;35.90
15156;DHT22;7678;50.058;8.306;2022-08-11T00:26:46;22.30;35.80
15156;DHT22;7678;50.058;8.306;2022-08-11T00:29:15;22.20;35.90
15156;DHT22;7678;50.058;8.306;2022-08-11T00:31:49;22.20;36.20
15156;DHT22;7678;50.058;8.306;2022-08-11T00:34:20;22.20;35.80
15156;DHT22;7678;50.058;8.306;2022-08-11T00:36:51;22.10;36.30
15156;DHT22;7678;50.058;8.306;2022-08-11T00:39:21;22.00;36.20
15156;DHT22;7678;50.058;8.306;2022-08-11T00:42:05;22.30;35.80
15156;DHT22;7678;50.058;8.306;2022-08-11T00:44:48;22.20;35.70
15156;DHT22;7678;50.058;8.306;2022-08-11T00:47:33;22.00;36.30
15156;DHT22;7678;50.058;8.306;2022-08-11T00:50:09;21.80;36.60
15156;DHT22;7678;50.058;8.306;2022-08-11T00:53:11;21.80;37.20
15156;DHT22;7678;50.058;8.306;2022-08-11T00:56:22;21.60;37.10
15156;DHT22;7678;50.058;8.306;2022-08-11T00:59:25;21.70;37.00
15156;DHT22;7678;50.058;8.306;2022-08-11T01:02:37;21.80;36.90
15156;DHT22;7678;50.058;8.306;2022-08-11T01:05:33;21.80;36.60
15156;DHT22;7678;50.058;8.306;2022-08-11T01:08:30;21.90;36.50
15156;DHT22;7678;50.058;8.306;2022-08-11T01:27:20;21.80;36.70
15156;DHT22;7678;50.058;8.306;2022-08-11T01:46:14;21.60;37.10
15156;DHT22;7678;50.058;8.306;2022-08-11T01:48:55;21.60;36.80
15156;DHT22;7678;50.058;8.306;2022-08-11T01:52:00;21.60;36.90
15156;DHT22;7678;50.058;8.306;2022-08-11T01:54:36;21.50;37.20
15156;DHT22;7678;50.058;8.306;2022-08-11T01:57:18;21.40;37.50
15156;DHT22;7678;50.058;8.306;2022-08-11T01:59:50;21.40;37.40
15156;DHT22;7678;50.058;8.306;2022-08-11T02:02:30;21.30;37.70
15156;DHT22;7678;50.058;8.306;2022-08-11T02:05:26;21.40;37.70
15156;DHT22;7678;50.058;8.306;2022-08-11T02:08:01;21.40;37.80
15156;DHT22;7678;50.058;8.306;2022-08-11T02:10:34;21.30;38.00
15156;DHT22;7678;50.058;8.306;2022-08-11T02:13:34;21.20;37.80
15156;DHT22;7678;50.058;8.306;2022-08-11T02:16:12;21.20;38.00
15156;DHT22;7678;50.058;8.306;2022-08-11T02:18:51;21.20;38.10
15156;DHT22;7678;50.058;8.306;2022-08-11T02:21:44;21.00;38.30
15156;DHT22;7678;50.058;8.306;2022-08-11T02:24:43;21.10;38.10
15156;DHT22;7678;50.058;8.306;2022-08-11T02:27:17;21.00;38.10
15156;DHT22;7678;50.058;8.306;2022-08-11T02:29:54;21.00;38.30
15156;DHT22;7678;50.058;8.306;2022-08-11T02:32:36;21.00;38.20
15156;DHT22;7678;50.058;8.306;2022-08-11T02:35:27;20.90;38.50
15156;DHT22;7678;50.058;8.306;2022-08-11T02:38:07;20.70;38.70
15156;DHT22;7678;50.058;8.306;2022-08-11T02:40:47;20.60;38.80
15156;DHT22;7678;50.058;8.306;2022-08-11T02:43:29;20.60;39.30
15156;DHT22;7678;50.058;8.306;2022-08-11T02:46:17;20.50;39.40
15156;DHT22;7678;50.058;8.306;2022-08-11T02:48:58;20.30;39.60
15156;DHT22;7678;50.058;8.306;2022-08-11T02:51:58;20.20;39.80
15156;DHT22;7678;50.058;8.306;2022-08-11T02:54:36;20.10;40.50
15156;DHT22;7678;50.058;8.306;2022-08-11T02:57:20;20.10;40.50
15156;DHT22;7678;50.058;8.306;2022-08-11T02:59:53;20.00;40.40
15156;DHT22;7678;50.058;8.306;2022-08-11T03:02:31;19.90;41.20
15156;DHT22;7678;50.058;8.306;2022-08-11T03:05:24;19.80;42.00
15156;DHT22;7678;50.058;8.306;2022-08-11T03:08:22;19.70;42.10
15156;DHT22;7678;50.058;8.306;2022-08-11T03:10:58;19.50;41.80
15156;DHT22;7678;50.058;8.306;2022-08-11T03:13:55;19.60;42.00
15156;DHT22;7678;50.058;8.306;2022-08-11T03:16:50;19.60;41.80
15156;DHT22;7678;50.058;8.306;2022-08-11T03:19:27;19.40;42.40
15156;DHT22;7678;50.058;8.306;2022-08-11T03:22:07;19.50;42.50
15156;DHT22;7678;50.058;8.306;2022-08-11T03:24:50;19.30;43.40
15156;DHT22;7678;50.058;8.306;2022-08-11T03:27:29;19.30;43.00
15156;DHT22;7678;50.058;8.306;2022-08-11T03:30:09;19.30;42.80
15156;DHT22;7678;50.058;8.306;2022-08-11T03:32:49;19.30;42.90
15156;DHT22;7678;50.058;8.306;2022-08-11T03:35:39;19.10;44.00
15156;DHT22;7678;50.058;8.306;2022-08-11T03:38:13;19.00;43.80
15156;DHT22;7678;50.058;8.306;2022-08-11T03:41:01;18.90;44.30
15156;DHT22;7678;50.058;8.306;2022-08-11T03:44:19;19.10;44.30
15156;DHT22;7678;50.058;8.306;2022-08-11T03:47:00;18.90;44.00
15156;DHT22;7678;50.058;8.306;2022-08-11T03:49:52;18.90;45.40
15156;DHT22;7678;50.058;8.306;2022-08-11T03:52:36;18.90;45.60
15156;DHT22;7678;50.058;8.306;2022-08-11T03:55:14;18.80;45.50
15156;DHT22;7678;50.058;8.306;2022-08-11T04:01:21;18.80;44.40
15156;DHT22;7678;50.058;8.306;2022-08-11T04:04:04;18.90;45.00
15156;DHT22;7678;50.058;8.306;2022-08-11T04:10:11;18.80;45.50
15156;DHT22;7678;50.058;8.306;2022-08-11T04:16:07;18.70;45.60
15156;DHT22;7678;50.058;8.306;2022-08-11T04:19:19;18.80;46.10
15156;DHT22;7678;50.058;8.306;2022-08-11T04:28:06;18.70;46.30
15156;DHT22;7678;50.058;8.306;2022-08-11T04:31:18;18.70;47.00
15156;DHT22;7678;50.058;8.306;2022-08-11T04:34:40;18.60;46.90
15156;DHT22;7678;50.058;8.306;2022-08-11T04:37:31;18.70;46.70
15156;DHT22;7678;50.058;8.306;2022-08-11T04:40:17;18.80;46.60
15156;DHT22;7678;50.058;8.306;2022-08-11T04:43:20;18.80;46.00
15156;DHT22;7678;50.058;8.306;2022-08-11T04:49:17;19.00;46.40
15156;DHT22;7678;50.058;8.306;2022-08-11T04:52:22;19.10;45.40
15156;DHT22;7678;50.058;8.306;2022-08-11T04:55:31;19.00;46.70
15156;DHT22;7678;50.058;8.306;2022-08-11T04:58:27;19.20;46.50
15156;DHT22;7678;50.058;8.306;2022-08-11T05:01:27;19.40;44.40
15156;DHT22;7678;50.058;8.306;2022-08-11T05:04:26;19.50;46.10
15156;DHT22;7678;50.058;8.306;2022-08-11T05:10:47;19.70;45.80
15156;DHT22;7678;50.058;8.306;2022-08-11T05:13:26;19.60;46.20
15156;DHT22;7678;50.058;8.306;2022-08-11T05:16:16;19.70;45.30
15156;DHT22;7678;50.058;8.306;2022-08-11T05:19:03;19.80;44.60
15156;DHT22;7678;50.058;8.306;2022-08-11T05:21:54;19.90;44.90
15156;DHT22;7678;50.058;8.306;2022-08-11T05:24:43;19.80;48.90
15156;DHT22;7678;50.058;8.306;2022-08-11T05:27:40;20.00;46.00
15156;DHT22;7678;50.058;8.306;2022-08-11T05:30:30;20.20;44.40
15156;DHT22;7678;50.058;8.306;2022-08-11T05:33:22;20.40;44.30
15156;DHT22;7678;50.058;8.306;2022-08-11T05:36:14;20.50;44.10
15156;DHT22;7678;50.058;8.306;2022-08-11T05:38:53;20.70;43.90
15156;DHT22;7678;50.058;8.306;2022-08-11T05:41:41;20.70;43.70
15156;DHT22;7678;50.058;8.306;2022-08-11T05:44:27;20.90;43.30
15156;DHT22;7678;50.058;8.306;2022-08-11T05:47:21;21.00;42.50
15156;DHT22;7678;50.058;8.306;2022-08-11T05:50:10;21.20;42.60
15156;DHT22;7678;50.058;8.306;2022-08-11T05:53:00;21.40;41.10
15156;DHT22;7678;50.058;8.306;2022-08-11T05:55:48;21.60;40.00
15156;DHT22;7678;50.058;8.306;2022-08-11T05:58:37;21.70;40.10
15156;DHT22;7678;50.058;8.306;2022-08-11T06:01:09;21.70;40.10
15156;DHT22;7678;50.058;8.306;2022-08-11T06:03:42;21.80;40.10
15156;DHT22;7678;50.058;8.306;2022-08-11T06:06:26;21.80;40.00
15156;DHT22;7678;50.058;8.306;2022-08-11T06:08:56;22.00;39.60
15156;DHT22;7678;50.058;8.306;2022-08-11T06:11:26;22.00;39.90
15156;DHT22;7678;50.058;8.306;2022-08-11T06:14:11;22.10;39.10
15156;DHT22;7678;50.058;8.306;2022-08-11T06:16:42;22.30;39.30
15156;DHT22;7678;50.058;8.306;2022-08-11T06:19:14;22.30;39.30
15156;DHT22;7678;50.058;8.306;2022-08-11T06:21:45;22.20;39.30
15156;DHT22;7678;50.058;8.306;2022-08-11T06:24:15;22.40;38.80
15156;DHT22;7678;50.058;8.306;2022-08-11T06:26:50;22.40;38.90
15156;DHT22;7678;50.058;8.306;2022-08-11T06:29:46;22.50;38.50
15156;DHT22;7678;50.058;8.306;2022-08-11T06:32:23;22.60;39.00
15156;DHT22;7678;50.058;8.306;2022-08-11T06:35:04;22.60;38.70
15156;DHT22;7678;50.058;8.306;2022-08-11T06:37:43;22.60;38.80
15156;DHT22;7678;50.058;8.306;2022-08-11T06:40:20;22.70;38.90
15156;DHT22;7678;50.058;8.306;2022-08-11T06:42:57;22.80;38.70
15156;DHT22;7678;50.058;8.306;2022-08-11T06:45:39;22.70;38.40
15156;DHT22;7678;50.058;8.306;2022-08-11T06:48:22;22.80;39.10
15156;DHT22;7678;50.058;8.306;2022-08-11T06:50:58;22.90;38.40
15156;DHT22;7678;50.058;8.306;2022-08-11T06:53:47;22.90;38.40
15156;DHT22;7678;50.058;8.306;2022-08-11T06:56:34;23.00;38.40
15156;DHT22;7678;50.058;8.306;2022-08-11T06:59:44;23.00;38.10
15156;DHT22;7678;50.058;8.306;2022-08-11T07:02:31;23.00;38.70
15156;DHT22;7678;50.058;8.306;2022-08-11T07:05:02;23.10;38.10
15156;DHT22;7678;50.058;8.306;2022-08-11T07:08:06;23.20;38.60
15156;DHT22;7678;50.058;8.306;2022-08-11T07:14:25;23.30;38.40
15156;DHT22;7678;50.058;8.306;2022-08-11T07:17:15;23.40;37.80
15156;DHT22;7678;50.058;8.306;2022-08-11T07:19:50;23.40;37.90
15156;DHT22;7678;50.058;8.306;2022-08-11T07:22:39;23.30;37.90
15156;DHT22;7678;50.058;8.306;2022-08-11T07:25:31;23.40;37.80
15156;DHT22;7678;50.058;8.306;2022-08-11T07:28:23;23.60;37.50
15156;DHT22;7678;50.058;8.306;2022-08-11T07:31:13;23.50;37.60
15156;DHT22;7678;50.058;8.306;2022-08-11T07:33:45;23.50;38.00
15156;DHT22;7678;50.058;8.306;2022-08-11T07:36:39;23.50;37.60
15156;DHT22;7678;50.058;8.306;2022-08-11T07:39:15;23.60;37.80
15156;DHT22;7678;50.058;8.306;2022-08-11T07:41:52;23.60;37.50
15156;DHT22;7678;50.058;8.306;2022-08-11T07:44:21;23.60;37.50
15156;DHT22;7678;50.058;8.306;2022-08-11T07:46:59;23.80;37.70
15156;DHT22;7678;50.058;8.306;2022-08-11T07:49:46;23.90;37.60
15156;DHT22;7678;50.058;8.306;2022-08-11T07:52:36;23.90;37.50
15156;DHT22;7678;50.058;8.306;2022-08-11T07:55:13;23.90;37.40
15156;DHT22;7678;50.058;8.306;2022-08-11T07:57:44;24.00;37.40
15156;DHT22;7678;50.058;8.306;2022-08-11T08:00:48;24.00;37.10
15156;DHT22;7678;50.058;8.306;2022-08-11T08:03:43;24.00;37.50
15156;DHT22;7678;50.058;8.306;2022-08-11T08:06:31;24.20;37.60
15156;DHT22;7678;50.058;8.306;2022-08-11T08:09:19;24.20;37.50
15156;DHT22;7678;50.058;8.306;2022-08-11T08:12:06;24.20;37.30
15156;DHT22;7678;50.058;8.306;2022-08-11T08:14:57;24.10;37.80
15156;DHT22;7678;50.058;8.306;2022-08-11T08:17:44;24.20;38.00
15156;DHT22;7678;50.058;8.306;2022-08-11T08:20:38;24.20;37.30
15156;DHT22;7678;50.058;8.306;2022-08-11T08:23:07;24.30;37.20
15156;DHT22;7678;50.058;8.306;2022-08-11T08:25:39;24.10;37.60
15156;DHT22;7678;50.058;8.306;2022-08-11T08:28:10;24.20;37.40
15156;DHT22;7678;50.058;8.306;2022-08-11T08:30:40;24.40;37.20
15156;DHT22;7678;50.058;8.306;2022-08-11T08:33:17;24.50;37.20
15156;DHT22;7678;50.058;8.306;2022-08-11T08:35:50;24.40;37.30
15156;DHT22;7678;50.058;8.306;2022-08-11T08:38:39;24.60;37.30
15156;DHT22;7678;50.058;8.306;2022-08-11T08:41:08;24.60;37.40
15156;DHT22;7678;50.058;8.306;2022-08-11T08:43:44;24.50;37.00
15156;DHT22;7678;50.058;8.306;2022-08-11T08:46:19;24.60;37.60
15156;DHT22;7678;50.058;8.306;2022-08-11T08:48:49;24.70;36.90
15156;DHT22;7678;50.058;8.306;2022-08-11T08:51:21;24.80;37.20
15156;DHT22;7678;50.058;8.306;2022-08-11T08:54:26;24.90;37.30
15156;DHT22;7678;50.058;8.306;2022-08-11T08:56:56;24.90;36.70
15156;DHT22;7678;50.058;8.306;2022-08-11T08:59:26;25.10;36.90
15156;DHT22;7678;50.058;8.306;2022-08-11T09:02:15;25.10;37.40
15156;DHT22;7678;50.058;8.306;2022-08-11T09:04:45;25.10;37.30
15156;DHT22;7678;50.058;8.306;2022-08-11T09:07:17;25.30;37.20
15156;DHT22;7678;50.058;8.306;2022-08-11T09:09:48;25.00;37.20
15156;DHT22;7678;50.058;8.306;2022-08-11T09:12:18;25.10;36.80
15156;DHT22;7678;50.058;8.306;2022-08-11T09:15:06;25.20;36.50
15156;DHT22;7678;50.058;8.306;2022-08-11T09:17:39;25.20;36.70
15156;DHT22;7678;50.058;8.306;2022-08-11T09:20:11;25.40;36.90
15156;DHT22;7678;50.058;8.306;2022-08-11T09:22:43;25.60;36.70
15156;DHT22;7678;50.058;8.306;2022-08-11T09:25:51;25.50;37.10
15156;DHT22;7678;50.058;8.306;2022-08-11T09:28:40;25.70;36.40
15156;DHT22;7678;50.058;8.306;2022-08-11T09:31:10;25.80;36.20
15156;DHT22;7678;50.058;8.306;2022-08-11T09:33:44;25.90;35.80
15156;DHT22;7678;50.058;8.306;2022-08-11T09:36:17;26.20;35.20
15156;DHT22;7678;50.058;8.306;2022-08-11T09:39:04;26.00;35.60
15156;DHT22;7678;50.058;8.306;2022-08-11T09:41:51;25.80;35.50
15156;DHT22;7678;50.058;8.306;2022-08-11T09:44:33;25.80;36.00
15156;DHT22;7678;50.058;8.306;2022-08-11T09:47:19;26.20;35.10
15156;DHT22;7678;50.058;8.306;2022-08-11T09:50:00;26.10;35.20
15156;DHT22;7678;50.058;8.306;2022-08-11T09:52:31;26.00;35.30
15156;DHT22;7678;50.058;8.306;2022-08-11T09:55:00;26.00;34.70
15156;DHT22;7678;50.058;8.306;2022-08-11T09:57:29;25.90;34.30
15156;DHT22;7678;50.058;8.306;2022-08-11T10:00:27;26.20;34.00
15156;DHT22;7678;50.058;8.306;2022-08-11T10:02:56;26.30;34.50
15156;DHT22;7678;50.058;8.306;2022-08-11T10:05:26;26.60;33.80
15156;DHT22;7678;50.058;8.306;2022-08-11T10:08:13;26.60;34.10
15156;DHT22;7678;50.058;8.306;2022-08-11T10:10:45;26.60;33.20
15156;DHT22;7678;50.058;8.306;2022-08-11T10:13:16;26.80;33.70
15156;DHT22;7678;50.058;8.306;2022-08-11T10:16:11;26.80;32.70
15156;DHT22;7678;50.058;8.306;2022-08-11T10:18:43;26.70;32.90
15156;DHT22;7678;50.058;8.306;2022-08-11T10:21:26;26.90;33.40
15156;DHT22;7678;50.058;8.306;2022-08-11T10:23:58;27.10;32.10
15156;DHT22;7678;50.058;8.306;2022-08-11T10:26:44;27.40;32.00
15156;DHT22;7678;50.058;8.306;2022-08-11T10:29:23;27.40;31.30
15156;DHT22;7678;50.058;8.306;2022-08-11T10:32:12;27.50;32.00
15156;DHT22;7678;50.058;8.306;2022-08-11T10:35:07;27.40;32.20
15156;DHT22;7678;50.058;8.306;2022-08-11T10:37:42;27.40;31.90
15156;DHT22;7678;50.058;8.306;2022-08-11T10:40:31;27.30;32.00
15156;DHT22;7678;50.058;8.306;2022-08-11T10:43:01;27.20;32.20
15156;DHT22;7678;50.058;8.306;2022-08-11T10:45:29;27.60;31.90
15156;DHT22;7678;50.058;8.306;2022-08-11T10:48:16;28.10;31.30
15156;DHT22;7678;50.058;8.306;2022-08-11T10:50:48;28.00;31.20
15156;DHT22;7678;50.058;8.306;2022-08-11T10:53:37;27.90;30.50
15156;DHT22;7678;50.058;8.306;2022-08-11T10:56:24;27.90;30.60
15156;DHT22;7678;50.058;8.306;2022-08-11T10:59:12;28.00;30.60
15156;DHT22;7678;50.058;8.306;2022-08-11T11:01:42;28.30;30.70
15156;DHT22;7678;50.058;8.306;2022-08-11T11:04:13;28.10;29.90
15156;DHT22;7678;50.058;8.306;2022-08-11T11:07:02;28.40;30.00
15156;DHT22;7678;50.058;8.306;2022-08-11T11:13:27;28.50;29.70
15156;DHT22;7678;50.058;8.306;2022-08-11T11:16:39;28.50;29.40
15156;DHT22;7678;50.058;8.306;2022-08-11T11:23:39;28.90;29.20
15156;DHT22;7678;50.058;8.306;2022-08-11T11:26:39;28.60;29.30
15156;DHT22;7678;50.058;8.306;2022-08-11T11:29:49;28.90;29.40
15156;DHT22;7678;50.058;8.306;2022-08-11T11:35:31;28.90;29.00
15156;DHT22;7678;50.058;8.306;2022-08-11T11:38:11;28.90;29.00
15156;DHT22;7678;50.058;8.306;2022-08-11T11:40:42;29.00;29.60
15156;DHT22;7678;50.058;8.306;2022-08-11T11:43:56;29.10;29.00
15156;DHT22;7678;50.058;8.306;2022-08-11T11:46:34;29.20;28.90
15156;DHT22;7678;50.058;8.306;2022-08-11T11:49:06;29.10;29.30
15156;DHT22;7678;50.058;8.306;2022-08-11T11:51:43;29.40;29.10
15156;DHT22;7678;50.058;8.306;2022-08-11T11:54:16;29.50;28.50
15156;DHT22;7678;50.058;8.306;2022-08-11T11:56:48;29.70;29.20
15156;DHT22;7678;50.058;8.306;2022-08-11T11:59:25;29.60;28.60
15156;DHT22;7678;50.058;8.306;2022-08-11T12:02:15;29.10;29.00
15156;DHT22;7678;50.058;8.306;2022-08-11T12:04:46;29.30;29.40
15156;DHT22;7678;50.058;8.306;2022-08-11T12:07:17;29.60;29.20
15156;DHT22;7678;50.058;8.306;2022-08-11T12:10:05;29.90;29.10
15156;DHT22;7678;50.058;8.306;2022-08-11T12:12:34;30.00;28.30
15156;DHT22;7678;50.058;8.306;2022-08-11T12:15:21;30.20;28.40
15156;DHT22;7678;50.058;8.306;2022-08-11T12:18:11;30.20;28.50
15156;DHT22;7678;50.058;8.306;2022-08-11T12:20:40;30.00;28.10
15156;DHT22;7678;50.058;8.306;2022-08-11T12:23:12;29.70;28.30
15156;DHT22;7678;50.058;8.306;2022-08-11T12:25:58;30.10;28.00
15156;DHT22;7678;50.058;8.306;2022-08-11T12:28:53;29.50;28.40
15156;DHT22;7678;50.058;8.306;2022-08-11T12:31:28;29.80;27.50
15156;DHT22;7678;50.058;8.306;2022-08-11T12:34:15;30.20;28.30
15156;DHT22;7678;50.058;8.306;2022-08-11T12:36:49;30.30;27.60
15156;DHT22;7678;50.058;8.306;2022-08-11T12:39:22;30.60;27.70
15156;DHT22;7678;50.058;8.306;2022-08-11T12:42:34;30.50;27.90
15156;DHT22;7678;50.058;8.306;2022-08-11T12:45:25;30.80;27.10
15156;DHT22;7678;50.058;8.306;2022-08-11T12:48:06;31.00;27.40
15156;DHT22;7678;50.058;8.306;2022-08-11T12:51:22;30.60;26.80
15156;DHT22;7678;50.058;8.306;2022-08-11T12:54:32;30.80;27.30
15156;DHT22;7678;50.058;8.306;2022-08-11T12:57:06;31.10;27.50
15156;DHT22;7678;50.058;8.306;2022-08-11T13:00:05;31.20;27.00
15156;DHT22;7678;50.058;8.306;2022-08-11T13:02:51;31.10;26.50
15156;DHT22;7678;50.058;8.306;2022-08-11T13:05:46;31.00;27.70
15156;DHT22;7678;50.058;8.306;2022-08-11T13:08:20;31.20;27.30
15156;DHT22;7678;50.058;8.306;2022-08-11T13:10:52;31.10;26.70
15156;DHT22;7678;50.058;8.306;2022-08-11T13:13:39;31.00;27.00
15156;DHT22;7678;50.058;8.306;2022-08-11T13:16:26;30.90;27.40
15156;DHT22;7678;50.058;8.306;2022-08-11T13:18:55;31.20;27.90
15156;DHT22;7678;50.058;8.306;2022-08-11T13:21:26;31.40;27.40
15156;DHT22;7678;50.058;8.306;2022-08-11T13:23:56;31.10;26.70
15156;DHT22;7678;50.058;8.306;2022-08-11T13:26:31;31.30;26.70
15156;DHT22;7678;50.058;8.306;2022-08-11T13:29:20;31.60;26.70
15156;DHT22;7678;50.058;8.306;2022-08-11T13:31:56;31.30;27.00
15156;DHT22;7678;50.058;8.306;2022-08-11T13:34:28;31.40;26.60
15156;DHT22;7678;50.058;8.306;2022-08-11T13:36:58;31.50;26.40
15156;DHT22;7678;50.058;8.306;2022-08-11T13:39:30;31.90;26.30
15156;DHT22;7678;50.058;8.306;2022-08-11T13:42:01;32.20;26.10
15156;DHT22;7678;50.058;8.306;2022-08-11T13:44:32;32.30;25.40
15156;DHT22;7678;50.058;8.306;2022-08-11T13:47:05;32.30;25.40
15156;DHT22;7678;50.058;8.306;2022-08-11T13:49:35;31.80;25.50
15156;DHT22;7678;50.058;8.306;2022-08-11T13:52:09;31.40;26.00
15156;DHT22;7678;50.058;8.306;2022-08-11T13:54:43;31.60;26.10
15156;DHT22;7678;50.058;8.306;2022-08-11T13:57:14;32.10;26.20
15156;DHT22;7678;50.058;8.306;2022-08-11T14:00:07;32.10;25.60
15156;DHT22;7678;50.058;8.306;2022-08-11T14:02:55;31.90;25.50
15156;DHT22;7678;50.058;8.306;2022-08-11T14:05:26;32.30;25.10
15156;DHT22;7678;50.058;8.306;2022-08-11T14:07:59;31.80;25.00
15156;DHT22;7678;50.058;8.306;2022-08-11T14:10:31;31.40;25.30
15156;DHT22;7678;50.058;8.306;2022-08-11T14:13:06;31.50;25.80
15156;DHT22;7678;50.058;8.306;2022-08-11T14:15:52;31.90;25.80
15156;DHT22;7678;50.058;8.306;2022-08-11T14:18:22;31.30;26.20
15156;DHT22;7678;50.058;8.306;2022-08-11T14:20:54;31.60;26.10
15156;DHT22;7678;50.058;8.306;2022-08-11T14:23:41;31.60;24.90
15156;DHT22;7678;50.058;8.306;2022-08-11T14:26:13;31.40;25.30
15156;DHT22;7678;50.058;8.306;2022-08-11T14:28:55;31.70;25.50
15156;DHT22;7678;50.058;8.306;2022-08-11T14:31:26;31.90;24.90
15156;DHT22;7678;50.058;8.306;2022-08-11T14:33:56;32.00;24.80
15156;DHT22;7678;50.058;8.306;2022-08-11T14:36:30;32.50;25.00
15156;DHT22;7678;50.058;8.306;2022-08-11T14:39:02;32.00;24.60
15156;DHT22;7678;50.058;8.306;2022-08-11T14:41:37;31.90;24.80
15156;DHT22;7678;50.058;8.306;2022-08-11T14:44:41;31.60;24.40
15156;DHT22;7678;50.058;8.306;2022-08-11T14:47:27;31.60;24.80
15156;DHT22;7678;50.058;8.306;2022-08-11T14:49:58;32.10;25.00
15156;DHT22;7678;50.058;8.306;2022-08-11T14:52:46;32.20;24.70
15156;DHT22;7678;50.058;8.306;2022-08-11T14:55:16;32.30;24.30
15156;DHT22;7678;50.058;8.306;2022-08-11T14:58:04;32.60;24.70
15156;DHT22;7678;50.058;8.306;2022-08-11T15:00:37;32.50;24.10
15156;DHT22;7678;50.058;8.306;2022-08-11T15:03:10;32.60;24.20
15156;DHT22;7678;50.058;8.306;2022-08-11T15:05:46;32.60;24.30
15156;DHT22;7678;50.058;8.306;2022-08-11T15:08:26;32.40;24.50
15156;DHT22;7678;50.058;8.306;2022-08-11T15:11:14;32.40;24.50
15156;DHT22;7678;50.058;8.306;2022-08-11T15:14:06;32.30;24.10
15156;DHT22;7678;50.058;8.306;2022-08-11T15:16:37;32.30;24.10
15156;DHT22;7678;50.058;8.306;2022-08-11T15:19:24;31.80;24.10
15156;DHT22;7678;50.058;8.306;2022-08-11T15:22:06;32.30;24.70
15156;DHT22;7678;50.058;8.306;2022-08-11T15:24:55;32.20;24.10
15156;DHT22;7678;50.058;8.306;2022-08-11T15:27:25;31.80;24.70
15156;DHT22;7678;50.058;8.306;2022-08-11T15:30:13;31.80;24.90
15156;DHT22;7678;50.058;8.306;2022-08-11T15:33:03;31.60;25.10
15156;DHT22;7678;50.058;8.306;2022-08-11T15:35:50;31.60;25.00
15156;DHT22;7678;50.058;8.306;2022-08-11T15:38:40;31.40;24.40
15156;DHT22;7678;50.058;8.306;2022-08-11T15:41:13;31.40;25.10
15156;DHT22;7678;50.058;8.306;2022-08-11T15:44:05;31.80;24.60
15156;DHT22;7678;50.058;8.306;2022-08-11T15:47:17;31.70;24.40
15156;DHT22;7678;50.058;8.306;2022-08-11T15:49:50;31.70;24.80
15156;DHT22;7678;50.058;8.306;2022-08-11T15:52:45;31.70;24.30
15156;DHT22;7678;50.058;8.306;2022-08-11T15:55:15;31.80;24.40
15156;DHT22;7678;50.058;8.306;2022-08-11T15:57:47;32.10;25.40
15156;DHT22;7678;50.058;8.306;2022-08-11T16:00:35;32.00;24.30
15156;DHT22;7678;50.058;8.306;2022-08-11T16:03:38;32.10;24.20
15156;DHT22;7678;50.058;8.306;2022-08-11T16:06:36;32.10;24.20
15156;DHT22;7678;50.058;8.306;2022-08-11T16:09:19;32.40;24.20
15156;DHT22;7678;50.058;8.306;2022-08-11T16:11:50;31.70;24.30
15156;DHT22;7678;50.058;8.306;2022-08-11T16:14:20;32.30;24.50
15156;DHT22;7678;50.058;8.306;2022-08-11T16:17:09;32.30;24.20
15156;DHT22;7678;50.058;8.306;2022-08-11T16:19:41;32.30;24.30
15156;DHT22;7678;50.058;8.306;2022-08-11T16:22:11;31.90;24.60
15156;DHT22;7678;50.058;8.306;2022-08-11T16:24:43;31.70;24.70
15156;DHT22;7678;50.058;8.306;2022-08-11T16:27:34;31.70;24.80
15156;DHT22;7678;50.058;8.306;2022-08-11T16:30:04;31.60;25.10
15156;DHT22;7678;50.058;8.306;2022-08-11T16:32:34;31.60;24.80
15156;DHT22;7678;50.058;8.306;2022-08-11T16:35:08;31.30;24.50
15156;DHT22;7678;50.058;8.306;2022-08-11T16:37:56;31.00;24.70
15156;DHT22;7678;50.058;8.306;2022-08-11T16:40:42;31.50;24.70
15156;DHT22;7678;50.058;8.306;2022-08-11T16:43:14;31.90;25.20
15156;DHT22;7678;50.058;8.306;2022-08-11T16:46:02;32.00;24.70
15156;DHT22;7678;50.058;8.306;2022-08-11T16:49:01;31.80;24.70
15156;DHT22;7678;50.058;8.306;2022-08-11T16:51:32;31.70;25.50
15156;DHT22;7678;50.058;8.306;2022-08-11T16:54:01;31.40;25.00
15156;DHT22;7678;50.058;8.306;2022-08-11T16:56:34;31.70;24.90
15156;DHT22;7678;50.058;8.306;2022-08-11T16:59:07;31.80;24.70
15156;DHT22;7678;50.058;8.306;2022-08-11T17:01:47;31.60;24.90
15156;DHT22;7678;50.058;8.306;2022-08-11T17:04:27;31.50;25.10
15156;DHT22;7678;50.058;8.306;2022-08-11T17:07:11;32.10;25.00
15156;DHT22;7678;50.058;8.306;2022-08-11T17:10:17;32.60;24.40
15156;DHT22;7678;50.058;8.306;2022-08-11T17:13:25;32.10;24.70
15156;DHT22;7678;50.058;8.306;2022-08-11T17:15:59;32.50;25.40
15156;DHT22;7678;50.058;8.306;2022-08-11T17:18:44;32.50;25.40
15156;DHT22;7678;50.058;8.306;2022-08-11T17:21:18;32.50;24.80
15156;DHT22;7678;50.058;8.306;2022-08-11T17:23:51;32.40;25.50
15156;DHT22;7678;50.058;8.306;2022-08-11T17:26:25;32.60;25.00
15156;DHT22;7678;50.058;8.306;2022-08-11T17:29:14;32.70;25.10
15156;DHT22;7678;50.058;8.306;2022-08-11T17:31:45;32.40;24.80
15156;DHT22;7678;50.058;8.306;2022-08-11T17:34:32;32.00;26.00
15156;DHT22;7678;50.058;8.306;2022-08-11T17:37:18;32.60;25.20
15156;DHT22;7678;50.058;8.306;2022-08-11T17:39:48;33.50;24.50
15156;DHT22;7678;50.058;8.306;2022-08-11T17:42:18;33.80;24.60
15156;DHT22;7678;50.058;8.306;2022-08-11T17:45:08;33.10;24.80
15156;DHT22;7678;50.058;8.306;2022-08-11T17:47:55;32.90;24.80
15156;DHT22;7678;50.058;8.306;2022-08-11T17:50:41;32.90;24.70
15156;DHT22;7678;50.058;8.306;2022-08-11T17:53:11;32.90;25.20
15156;DHT22;7678;50.058;8.306;2022-08-11T17:55:59;32.50;25.30
15156;DHT22;7678;50.058;8.306;2022-08-11T17:58:46;31.80;25.90
15156;DHT22;7678;50.058;8.306;2022-08-11T18:01:33;30.70;26.40
15156;DHT22;7678;50.058;8.306;2022-08-11T18:04:04;30.00;27.00
15156;DHT22;7678;50.058;8.306;2022-08-11T18:06:33;29.60;27.30
15156;DHT22;7678;50.058;8.306;2022-08-11T18:09:06;29.40;27.80
15156;DHT22;7678;50.058;8.306;2022-08-11T18:11:54;29.10;27.80
15156;DHT22;7678;50.058;8.306;2022-08-11T18:14:43;29.10;28.20
15156;DHT22;7678;50.058;8.306;2022-08-11T18:17:32;28.90;28.40
15156;DHT22;7678;50.058;8.306;2022-08-11T18:20:19;28.80;29.00
15156;DHT22;7678;50.058;8.306;2022-08-11T18:23:09;28.70;28.60
15156;DHT22;7678;50.058;8.306;2022-08-11T18:26:14;28.50;29.60
15156;DHT22;7678;50.058;8.306;2022-08-11T18:29:03;28.30;29.20
15156;DHT22;7678;50.058;8.306;2022-08-11T18:31:53;28.30;29.70